ADDS METAR Data INFO
IDs: Format: Raw Decoded Include TAF

Data at: 0510 UTC 23 May 2017

KLUD 230455Z AUTO 15006KT 10SM SCT037 SCT080 19/16 A2992 RMK AO2 T01920160
KLUD 230435Z AUTO 14007KT 10SM CLR 19/16 A2992 RMK AO2 T01940159
KLUD 230415Z AUTO 13004KT 10SM CLR 20/16 A2993 RMK AO2 T01970157
KLUD 230355Z AUTO 12004KT 10SM CLR 20/16 A2993 RMK AO2 T02000156
KLUD 230335Z AUTO 00000KT 10SM SCT090 20/16 A2993 RMK AO2 T01980156
KLUD 230315Z AUTO 00000KT 10SM CLR 20/16 A2993 RMK AO2 T02020155
KLUD 230255Z AUTO 12004KT 10SM CLR 21/16 A2992 RMK AO2 T02070155
KLUD 230235Z AUTO 13006KT 10SM SCT060 SCT080 SCT110 21/16 A2992 RMK AO2 T02120155
KLUD 230215Z AUTO 11005KT 10SM SCT060 SCT080 22/16 A2992 RMK AO2 T02150155
KLUD 230155Z AUTO 10005KT 10SM SCT060 22/15 A2992 RMK AO2 T02180154
KLUD 230135Z AUTO 09006KT 10SM BKN060 BKN070 22/15 A2991 RMK AO2 T02210153
KLUD 230115Z AUTO 00000KT 10SM OVC060 23/15 A2992 RMK AO2 T02250152
KLUD 230055Z AUTO 00000KT 10SM OVC060 23/15 A2991 RMK AO2 T02280149
KLUD 230035Z AUTO 00000KT 10SM OVC050 23/15 A2992 RMK AO2 T02310150
KLUD 230015Z AUTO 00000KT 10SM BKN050 23/15 A2992 RMK AO2 T02340148
KLUD 222355Z AUTO 00000KT 10SM BKN050 24/15 A2993 RMK AO2 T02350147 10244 20223
KLUD 222335Z AUTO 00000KT 10SM OVC050 24/15 A2993 RMK AO2 T02360145
KLUD 222315Z AUTO 09004KT 10SM BKN050 24/15 A2993 RMK AO2 T02390145
KLUD 222255Z AUTO 00000KT 7SM BKN050 24/15 A2994 RMK AO2 T02420148
KLUD 222235Z AUTO 00000KT 10SM SCT050 24/15 A2994 RMK AO2 T02410147
KLUD 222215Z AUTO 00000KT 10SM SCT050 24/15 A2995 RMK AO2 T02420147
KLUD 222155Z AUTO 00000KT 10SM SCT044 SCT050 24/15 A2996 RMK AO2 T02400150
KLUD 222135Z AUTO 09004KT 10SM SCT048 24/15 A2997 RMK AO2 T02360148
KLUD 222115Z AUTO 08005KT 10SM SCT048 24/15 A2997 RMK AO2 T02380150
KLUD 222055Z AUTO 11004KT 10SM SCT034 SCT040 BKN048 24/15 A2998 RMK AO2 T02350149
KLUD 222035Z AUTO 10005KT 10SM BKN034 OVC040 23/15 A2999 RMK AO2 T02330147
KLUD 222015Z AUTO 11005KT 10SM OVC034 23/15 A3000 RMK AO2 T02320147
KLUD 221955Z AUTO 09003KT 10SM SCT030 BKN037 23/15 A3000 RMK AO2 T02320149
KLUD 221935Z AUTO 07007KT 10SM BKN032 BKN037 24/15 A3000 RMK AO2 T02370152
KLUD 221915Z AUTO 10006KT 10SM OVC030 23/15 A3001 RMK AO2 T02250149
KLUD 221855Z AUTO 06006KT 10SM BKN031 BKN037 23/15 A3002 RMK AO2 T02300149
KLUD 221835Z AUTO 05007KT 10SM BKN028 OVC036 23/15 A3003 RMK AO2 T02280149
KLUD 221815Z AUTO 10006KT 10SM BKN030 BKN034 BKN040 23/15 A3004 RMK AO2 T02300146
KLUD 221755Z AUTO 05006KT 10SM OVC030 23/15 A3004 RMK AO2 T02330151 10237 20155
KLUD 221735Z AUTO 08005KT 10SM BKN027 OVC032 22/15 A3005 RMK AO2 T02190149
KLUD 221715Z AUTO 00000KT 10SM BKN025 22/15 A3007 RMK AO2 T02150149
KLUD 221655Z AUTO 10005KT 10SM OVC023 21/15 A3008 RMK AO2 T02110146
KLUD 221635Z AUTO 08006KT 10SM OVC023 21/15 A3009 RMK AO2 T02100146
KLUD 221615Z AUTO 00000KT 10SM BKN023 21/15 A3009 RMK AO2 T02100147
KLUD 221555Z AUTO 12006KT 10SM BKN023 21/14 A3010 RMK AO2 T02100142
KLUD 221535Z AUTO 00000KT 10SM BKN021 20/14 A3010 RMK AO2 T01960144
KLUD 221515Z AUTO 00000KT 10SM SCT017 20/15 A3011 RMK AO2 T01980145
KLUD 221455Z AUTO 10003KT 10SM BKN017 19/14 A3011 RMK AO2 T01890144
KLUD 221435Z AUTO 15007KT 10SM BKN017 19/14 A3010 RMK AO2 T01910139
KLUD 221415Z AUTO 13011KT 10SM SCT017 19/14 A3010 RMK AO2 T01850135
KLUD 221355Z AUTO 13008KT 10SM CLR 19/13 A3010 RMK AO2 T01850133
KLUD 221335Z AUTO 13007KT 10SM CLR 18/14 A3009 RMK AO2 T01770135
KLUD 221315Z AUTO 12006KT 10SM CLR 18/13 A3009 RMK AO2 T01750134
KLUD 221255Z AUTO 13006KT 10SM CLR 17/14 A3009 RMK AO2 T01720135
KLUD 221235Z AUTO 12006KT 10SM CLR 17/14 A3009 RMK AO2 T01710139
KLUD 221215Z AUTO 12007KT 10SM CLR 16/14 A3009 RMK AO2 T01610143
KLUD 221155Z AUTO 13003KT 10SM CLR 16/14 A3009 RMK AO2 T01550139 10183 20150
KLUD 221135Z AUTO 12003KT 10SM CLR 15/14 A3009 RMK AO2 T01510137
KLUD 221115Z AUTO 11004KT 10SM CLR 15/14 A3009 RMK AO2 T01510136
KLUD 221055Z AUTO 00000KT 10SM CLR 15/14 A3009 RMK AO2 T01540137
KLUD 221035Z AUTO 11004KT 10SM CLR 16/14 A3009 RMK AO2 T01550138
KLUD 221015Z AUTO 00000KT 10SM CLR 16/14 A3010 RMK AO2 T01590142
KLUD 220955Z AUTO 00000KT 10SM CLR 16/15 A3010 RMK AO2 T01600145
KLUD 220935Z AUTO 00000KT 10SM CLR 16/15 A3010 RMK AO2 T01620145
KLUD 220910Z AUTO 00000KT 10SM CLR 17/15 A3011 RMK AO2 T01650146
KLUD 220855Z AUTO 00000KT 10SM CLR 16/15 A3011 RMK AO2 T01610145
KLUD 220835Z AUTO 00000KT 10SM CLR 17/15 A3012 RMK AO2 T01650146
KLUD 220815Z AUTO 23004KT 10SM SCT070 17/14 A3012 RMK AO2 T01660141
KLUD 220755Z AUTO 00000KT 10SM SCT048 BKN060 BKN080 17/13 A3012 RMK AO2 T01740134
KLUD 220735Z AUTO 18003KT 10SM BKN050 18/12 A3013 RMK AO2 T01770124
KLUD 220715Z AUTO 11003KT 10SM SCT048 17/12 A3012 RMK AO2 T01730121
KLUD 220655Z AUTO 10003KT 10SM CLR 18/12 A3012 RMK AO2 T01750121
KLUD 220635Z AUTO 00000KT 10SM CLR 18/12 A3013 RMK AO2 T01810119
KLUD 220615Z AUTO 20005KT 10SM CLR 17/13 A3013 RMK AO2 T01740125
KLUD 220555Z AUTO 08006KT 10SM SCT006 SCT095 18/12 A3011 RMK AO2 T01810121 10230 20181 402540142
KLUD 220535Z AUTO 09008KT 10SM SCT065 SCT090 19/11 A3013 RMK AO2 T01850111
KLUD 220515Z AUTO 00000KT 10SM OVC065 19/11 A3015 RMK AO2 T01870112
KLUD 220455Z AUTO 00000KT 10SM OVC065 19/11 A3014 RMK AO2 T01880108
KLUD 220435Z AUTO 00000KT 10SM BKN065 19/11 A3013 RMK AO2 T01880110
KLUD 220415Z AUTO 06004KT 10SM SCT065 19/11 A3013 RMK AO2 T01900106
KLUD 220355Z AUTO 07004KT 10SM CLR 19/11 A3013 RMK AO2 T01930105
KLUD 220335Z AUTO 08003KT 10SM CLR 20/11 A3012 RMK AO2 T01950105
KLUD 220315Z AUTO 05004KT 10SM CLR 20/11 A3012 RMK AO2 T01960105
KLUD 220255Z AUTO 07005KT 10SM CLR 20/10 A3012 RMK AO2 T02000102
KLUD 220235Z AUTO 08005KT 10SM SCT120 20/10 A3012 RMK AO2 T02020103
KLUD 220215Z AUTO 07004KT 10SM SCT120 21/11 A3012 RMK AO2 T02050107
KLUD 220155Z AUTO 07003KT 10SM SCT120 21/11 A3011 RMK AO2 T02070110
KLUD 220135Z AUTO 07004KT 10SM CLR 21/11 A3010 RMK AO2 T02080114
KLUD 220115Z AUTO 06004KT 10SM CLR 21/11 A3010 RMK AO2 T02130113
KLUD 220055Z AUTO 06005KT 10SM CLR 22/11 A3009 RMK AO2 T02180112
KLUD 220035Z AUTO 06006KT 10SM CLR 22/11 A3009 RMK AO2 T02210111
KLUD 220015Z AUTO 07006KT 10SM CLR 23/11 A3009 RMK AO2 T02250106
KLUD 212355Z AUTO 07005KT 10SM CLR 23/11 A3011 RMK AO2 T02300105 10254 20226
KLUD 212335Z AUTO 09004KT 10SM CLR 23/11 A3011 RMK AO2 T02330108
KLUD 212315Z AUTO 08007KT 10SM CLR 24/11 A3011 RMK AO2 T02370105
KLUD 212255Z AUTO 10007KT 10SM CLR 24/11 A3011 RMK AO2 T02400107
KLUD 212235Z AUTO 10007KT 10SM CLR 24/11 A3010 RMK AO2 T02410105
KLUD 212215Z AUTO 08008KT 10SM CLR 24/11 A3011 RMK AO2 T02440105
KLUD 212155Z AUTO 07008KT 10SM CLR 25/11 A3012 RMK AO2 T02450105
KLUD 212135Z AUTO 08006KT 10SM CLR 24/10 A3012 RMK AO2 T02430104
KLUD 212115Z AUTO 06011KT 10SM CLR 25/10 A3012 RMK AO2 T02470101
KLUD 212055Z AUTO 09010G14KT 10SM CLR 25/10 A3012 RMK AO2 T02480100
KLUD 212035Z AUTO 09009KT 10SM CLR 25/10 A3014 RMK AO2 T02510100
KLUD 212015Z AUTO 09008G15KT 10SM CLR 25/09 A3014 RMK AO2 T02450093
KLUD 211955Z AUTO 05007KT 010V090 10SM CLR 25/10 A3013 RMK AO2 T02540096
KLUD 211935Z AUTO 07009G14KT 10SM CLR 25/10 A3012 RMK AO2 T02490100
KLUD 211915Z AUTO 08008KT 10SM CLR 24/10 A3014 RMK AO2 T02430095
KLUD 211855Z AUTO 10007KT 10SM CLR 24/09 A3015 RMK AO2 T02350093
KLUD 211835Z AUTO 07006KT 10SM CLR 24/09 A3016 RMK AO2 T02370093
KLUD 211815Z AUTO 12007KT 10SM CLR 23/09 A3017 RMK AO2 T02270089
KLUD 211755Z AUTO 09008KT 10SM CLR 23/08 A3017 RMK AO2 T02260081 10232 20147
KLUD 211735Z AUTO 07008KT 040V100 10SM CLR 22/09 A3017 RMK AO2 T02240085
KLUD 211715Z AUTO 09009G14KT 10SM CLR 23/08 A3019 RMK AO2 T02270080


Page loaded:  05:10 UTC  |   10:10 PM Pacific  |   11:10 PM Mountain  |   12:10 AM Central  |   01:10 AM Eastern

 

ADVISORIES

FORECASTS

FORECASTS

OBSERVATIONS

USER TOOLS

ABOUT US